sensor_id;sensor_type;location;lat;lon;timestamp;P1;durP1;ratioP1;P2;durP2;ratioP2
22774;SDS011;11554;51.106;3.684;2022-07-29T00:00:00;6.10;;;2.20;;
22774;SDS011;11554;51.106;3.684;2022-07-29T00:05:00;5.00;;;2.00;;
22774;SDS011;11554;51.106;3.684;2022-07-29T00:10:00;5.00;;;2.00;;
22774;SDS011;11554;51.106;3.684;2022-07-29T00:15:00;6.00;;;2.00;;
22774;SDS011;11554;51.106;3.684;2022-07-29T00:20:00;6.00;;;2.00;;
22774;SDS011;11554;51.106;3.684;2022-07-29T00:25:00;7.50;;;2.40;;
22774;SDS011;11554;51.106;3.684;2022-07-29T00:30:00;7.50;;;2.40;;
22774;SDS011;11554;51.106;3.684;2022-07-29T00:35:00;7.00;;;2.50;;
22774;SDS011;11554;51.106;3.684;2022-07-29T00:40:00;7.00;;;2.50;;
22774;SDS011;11554;51.106;3.684;2022-07-29T00:45:00;6.60;;;2.20;;
22774;SDS011;11554;51.106;3.684;2022-07-29T00:50:00;6.60;;;2.20;;
22774;SDS011;11554;51.106;3.684;2022-07-29T00:55:00;6.00;;;2.20;;
22774;SDS011;11554;51.106;3.684;2022-07-29T01:00:00;6.00;;;2.20;;
22774;SDS011;11554;51.106;3.684;2022-07-29T01:05:00;6.50;;;2.10;;
22774;SDS011;11554;51.106;3.684;2022-07-29T01:10:01;6.50;;;2.10;;
22774;SDS011;11554;51.106;3.684;2022-07-29T01:15:01;5.10;;;1.90;;
22774;SDS011;11554;51.106;3.684;2022-07-29T01:20:03;5.10;;;1.90;;
22774;SDS011;11554;51.106;3.684;2022-07-29T01:25:12;3.80;;;1.60;;
22774;SDS011;11554;51.106;3.684;2022-07-29T01:30:02;3.80;;;1.60;;
22774;SDS011;11554;51.106;3.684;2022-07-29T01:35:03;3.70;;;1.60;;
22774;SDS011;11554;51.106;3.684;2022-07-29T01:40:01;3.70;;;1.60;;
22774;SDS011;11554;51.106;3.684;2022-07-29T01:45:12;4.20;;;1.60;;
22774;SDS011;11554;51.106;3.684;2022-07-29T01:50:01;4.20;;;1.60;;
22774;SDS011;11554;51.106;3.684;2022-07-29T01:55:06;5.30;;;1.70;;
22774;SDS011;11554;51.106;3.684;2022-07-29T02:00:00;5.30;;;1.70;;
22774;SDS011;11554;51.106;3.684;2022-07-29T02:05:02;6.20;;;2.00;;
22774;SDS011;11554;51.106;3.684;2022-07-29T02:10:03;6.20;;;2.00;;
22774;SDS011;11554;51.106;3.684;2022-07-29T02:15:02;4.00;;;1.70;;
22774;SDS011;11554;51.106;3.684;2022-07-29T02:20:02;4.00;;;1.70;;
22774;SDS011;11554;51.106;3.684;2022-07-29T02:25:00;4.20;;;1.80;;
22774;SDS011;11554;51.106;3.684;2022-07-29T02:30:02;4.20;;;1.80;;
22774;SDS011;11554;51.106;3.684;2022-07-29T02:35:00;5.50;;;2.00;;
22774;SDS011;11554;51.106;3.684;2022-07-29T02:40:01;5.50;;;2.00;;
22774;SDS011;11554;51.106;3.684;2022-07-29T02:45:00;3.40;;;1.80;;
22774;SDS011;11554;51.106;3.684;2022-07-29T02:50:02;3.40;;;1.80;;
22774;SDS011;11554;51.106;3.684;2022-07-29T02:55:02;5.30;;;2.00;;
22774;SDS011;11554;51.106;3.684;2022-07-29T03:00:05;5.30;;;2.00;;
22774;SDS011;11554;51.106;3.684;2022-07-29T03:05:01;6.90;;;2.10;;
22774;SDS011;11554;51.106;3.684;2022-07-29T03:10:01;6.90;;;2.10;;
22774;SDS011;11554;51.106;3.684;2022-07-29T03:15:00;5.20;;;2.30;;
22774;SDS011;11554;51.106;3.684;2022-07-29T03:20:01;5.20;;;2.30;;
22774;SDS011;11554;51.106;3.684;2022-07-29T03:25:07;3.90;;;2.10;;
22774;SDS011;11554;51.106;3.684;2022-07-29T03:30:00;3.90;;;2.10;;
22774;SDS011;11554;51.106;3.684;2022-07-29T03:35:00;5.80;;;2.40;;
22774;SDS011;11554;51.106;3.684;2022-07-29T03:40:02;5.80;;;2.40;;
22774;SDS011;11554;51.106;3.684;2022-07-29T03:45:03;4.90;;;2.00;;
22774;SDS011;11554;51.106;3.684;2022-07-29T03:50:05;4.90;;;2.00;;
22774;SDS011;11554;51.106;3.684;2022-07-29T03:55:00;5.20;;;2.10;;
22774;SDS011;11554;51.106;3.684;2022-07-29T04:00:02;5.20;;;2.10;;
22774;SDS011;11554;51.106;3.684;2022-07-29T04:05:00;4.90;;;2.70;;
22774;SDS011;11554;51.106;3.684;2022-07-29T04:10:00;4.90;;;2.70;;
22774;SDS011;11554;51.106;3.684;2022-07-29T04:15:01;5.80;;;2.00;;
22774;SDS011;11554;51.106;3.684;2022-07-29T04:20:00;5.80;;;2.00;;
22774;SDS011;11554;51.106;3.684;2022-07-29T04:25:00;4.80;;;2.30;;
22774;SDS011;11554;51.106;3.684;2022-07-29T04:30:01;4.80;;;2.30;;
22774;SDS011;11554;51.106;3.684;2022-07-29T04:35:00;4.40;;;2.50;;
22774;SDS011;11554;51.106;3.684;2022-07-29T04:40:00;4.40;;;2.50;;
22774;SDS011;11554;51.106;3.684;2022-07-29T04:45:01;6.90;;;2.90;;
22774;SDS011;11554;51.106;3.684;2022-07-29T04:50:00;6.90;;;2.90;;
22774;SDS011;11554;51.106;3.684;2022-07-29T04:55:00;4.60;;;2.20;;
22774;SDS011;11554;51.106;3.684;2022-07-29T05:00:00;4.60;;;2.20;;
22774;SDS011;11554;51.106;3.684;2022-07-29T05:05:00;4.90;;;2.80;;
22774;SDS011;11554;51.106;3.684;2022-07-29T05:10:00;4.90;;;2.80;;
22774;SDS011;11554;51.106;3.684;2022-07-29T05:15:00;6.10;;;3.10;;
22774;SDS011;11554;51.106;3.684;2022-07-29T05:20:00;6.10;;;3.10;;
22774;SDS011;11554;51.106;3.684;2022-07-29T05:25:00;7.10;;;3.20;;
22774;SDS011;11554;51.106;3.684;2022-07-29T05:30:00;7.10;;;3.20;;
22774;SDS011;11554;51.106;3.684;2022-07-29T05:35:00;6.70;;;3.20;;
22774;SDS011;11554;51.106;3.684;2022-07-29T05:40:00;6.70;;;3.20;;
22774;SDS011;11554;51.106;3.684;2022-07-29T05:45:00;4.90;;;3.30;;
22774;SDS011;11554;51.106;3.684;2022-07-29T05:50:00;4.90;;;3.30;;
22774;SDS011;11554;51.106;3.684;2022-07-29T05:55:00;7.00;;;3.20;;
22774;SDS011;11554;51.106;3.684;2022-07-29T06:00:00;7.00;;;3.20;;
22774;SDS011;11554;51.106;3.684;2022-07-29T06:05:00;5.30;;;2.80;;
22774;SDS011;11554;51.106;3.684;2022-07-29T06:10:00;5.30;;;2.80;;
22774;SDS011;11554;51.106;3.684;2022-07-29T06:15:00;6.60;;;2.90;;
22774;SDS011;11554;51.106;3.684;2022-07-29T06:20:00;6.60;;;2.90;;
22774;SDS011;11554;51.106;3.684;2022-07-29T06:25:01;10.70;;;3.30;;
22774;SDS011;11554;51.106;3.684;2022-07-29T06:30:00;10.70;;;3.30;;
22774;SDS011;11554;51.106;3.684;2022-07-29T06:35:00;8.10;;;3.50;;
22774;SDS011;11554;51.106;3.684;2022-07-29T06:40:00;8.10;;;3.50;;
22774;SDS011;11554;51.106;3.684;2022-07-29T06:45:00;7.30;;;3.40;;
22774;SDS011;11554;51.106;3.684;2022-07-29T06:50:00;7.30;;;3.40;;
22774;SDS011;11554;51.106;3.684;2022-07-29T06:55:00;7.80;;;2.90;;
22774;SDS011;11554;51.106;3.684;2022-07-29T07:00:00;7.80;;;2.90;;
22774;SDS011;11554;51.106;3.684;2022-07-29T07:05:00;6.10;;;3.20;;
22774;SDS011;11554;51.106;3.684;2022-07-29T07:10:00;6.10;;;3.20;;
22774;SDS011;11554;51.106;3.684;2022-07-29T07:15:00;8.50;;;3.50;;
22774;SDS011;11554;51.106;3.684;2022-07-29T07:20:00;8.50;;;3.50;;
22774;SDS011;11554;51.106;3.684;2022-07-29T07:25:00;7.60;;;3.50;;
22774;SDS011;11554;51.106;3.684;2022-07-29T07:30:00;7.60;;;3.50;;
22774;SDS011;11554;51.106;3.684;2022-07-29T07:35:00;5.90;;;3.50;;
22774;SDS011;11554;51.106;3.684;2022-07-29T07:40:00;5.90;;;3.50;;
22774;SDS011;11554;51.106;3.684;2022-07-29T07:45:00;6.80;;;3.60;;
22774;SDS011;11554;51.106;3.684;2022-07-29T07:50:00;6.80;;;3.60;;
22774;SDS011;11554;51.106;3.684;2022-07-29T07:55:00;7.40;;;3.80;;
22774;SDS011;11554;51.106;3.684;2022-07-29T08:00:00;7.40;;;3.80;;
22774;SDS011;11554;51.106;3.684;2022-07-29T08:05:00;9.10;;;4.60;;
22774;SDS011;11554;51.106;3.684;2022-07-29T08:10:00;9.10;;;4.60;;
22774;SDS011;11554;51.106;3.684;2022-07-29T08:15:00;6.90;;;3.90;;
22774;SDS011;11554;51.106;3.684;2022-07-29T08:20:00;6.90;;;3.90;;
22774;SDS011;11554;51.106;3.684;2022-07-29T08:25:00;5.90;;;3.70;;
22774;SDS011;11554;51.106;3.684;2022-07-29T08:30:00;5.90;;;3.70;;
22774;SDS011;11554;51.106;3.684;2022-07-29T08:35:00;9.20;;;3.80;;
22774;SDS011;11554;51.106;3.684;2022-07-29T08:40:00;9.20;;;3.80;;
22774;SDS011;11554;51.106;3.684;2022-07-29T08:45:00;6.50;;;2.50;;
22774;SDS011;11554;51.106;3.684;2022-07-29T08:50:00;6.50;;;2.50;;
22774;SDS011;11554;51.106;3.684;2022-07-29T08:55:00;7.40;;;3.20;;
22774;SDS011;11554;51.106;3.684;2022-07-29T09:00:02;7.40;;;3.20;;
22774;SDS011;11554;51.106;3.684;2022-07-29T09:05:01;5.90;;;2.60;;
22774;SDS011;11554;51.106;3.684;2022-07-29T09:10:00;5.90;;;2.60;;
22774;SDS011;11554;51.106;3.684;2022-07-29T09:15:00;7.00;;;2.70;;
22774;SDS011;11554;51.106;3.684;2022-07-29T09:20:08;7.00;;;2.70;;
22774;SDS011;11554;51.106;3.684;2022-07-29T09:25:00;6.00;;;3.00;;
22774;SDS011;11554;51.106;3.684;2022-07-29T09:30:02;6.00;;;3.00;;
22774;SDS011;11554;51.106;3.684;2022-07-29T09:35:13;8.20;;;2.20;;
22774;SDS011;11554;51.106;3.684;2022-07-29T09:40:11;8.20;;;2.20;;
22774;SDS011;11554;51.106;3.684;2022-07-29T09:45:00;4.40;;;2.10;;
22774;SDS011;11554;51.106;3.684;2022-07-29T09:50:00;4.40;;;2.10;;
22774;SDS011;11554;51.106;3.684;2022-07-29T09:55:08;8.10;;;1.90;;
22774;SDS011;11554;51.106;3.684;2022-07-29T10:00:05;8.10;;;1.90;;
22774;SDS011;11554;51.106;3.684;2022-07-29T10:05:02;8.20;;;1.90;;
22774;SDS011;11554;51.106;3.684;2022-07-29T10:20:00;6.60;;;1.70;;
22774;SDS011;11554;51.106;3.684;2022-07-29T10:25:01;7.60;;;1.60;;
22774;SDS011;11554;51.106;3.684;2022-07-29T10:30:00;7.60;;;1.60;;
22774;SDS011;11554;51.106;3.684;2022-07-29T10:35:08;5.30;;;1.70;;
22774;SDS011;11554;51.106;3.684;2022-07-29T10:40:06;5.30;;;1.70;;
22774;SDS011;11554;51.106;3.684;2022-07-29T10:45:02;5.90;;;1.60;;
22774;SDS011;11554;51.106;3.684;2022-07-29T10:50:01;5.90;;;1.60;;
22774;SDS011;11554;51.106;3.684;2022-07-29T10:55:00;5.30;;;1.50;;
22774;SDS011;11554;51.106;3.684;2022-07-29T11:05:01;4.50;;;1.80;;
22774;SDS011;11554;51.106;3.684;2022-07-29T11:15:00;5.70;;;1.60;;
22774;SDS011;11554;51.106;3.684;2022-07-29T11:25:13;5.00;;;1.50;;
22774;SDS011;11554;51.106;3.684;2022-07-29T11:30:00;5.00;;;1.50;;
22774;SDS011;11554;51.106;3.684;2022-07-29T11:35:11;11.90;;;1.80;;
22774;SDS011;11554;51.106;3.684;2022-07-29T11:40:11;11.90;;;1.80;;
22774;SDS011;11554;51.106;3.684;2022-07-29T11:45:01;7.00;;;1.60;;
22774;SDS011;11554;51.106;3.684;2022-07-29T11:50:01;7.00;;;1.60;;
22774;SDS011;11554;51.106;3.684;2022-07-29T11:55:02;5.20;;;1.60;;
22774;SDS011;11554;51.106;3.684;2022-07-29T12:00:00;5.20;;;1.60;;
22774;SDS011;11554;51.106;3.684;2022-07-29T12:05:00;4.20;;;1.60;;
22774;SDS011;11554;51.106;3.684;2022-07-29T12:10:01;4.20;;;1.60;;
22774;SDS011;11554;51.106;3.684;2022-07-29T12:15:10;5.20;;;1.70;;
22774;SDS011;11554;51.106;3.684;2022-07-29T12:20:03;5.20;;;1.70;;
22774;SDS011;11554;51.106;3.684;2022-07-29T12:25:02;5.00;;;1.90;;
22774;SDS011;11554;51.106;3.684;2022-07-29T12:30:03;5.00;;;1.90;;
22774;SDS011;11554;51.106;3.684;2022-07-29T12:35:04;3.20;;;1.60;;
22774;SDS011;11554;51.106;3.684;2022-07-29T12:40:00;3.20;;;1.60;;
22774;SDS011;11554;51.106;3.684;2022-07-29T12:45:01;4.90;;;1.90;;
22774;SDS011;11554;51.106;3.684;2022-07-29T12:50:09;4.90;;;1.90;;
22774;SDS011;11554;51.106;3.684;2022-07-29T12:55:01;8.40;;;2.20;;
22774;SDS011;11554;51.106;3.684;2022-07-29T13:00:05;8.40;;;2.20;;
22774;SDS011;11554;51.106;3.684;2022-07-29T13:05:01;5.60;;;2.00;;
22774;SDS011;11554;51.106;3.684;2022-07-29T13:10:11;5.60;;;2.00;;
22774;SDS011;11554;51.106;3.684;2022-07-29T13:15:01;5.20;;;1.80;;
22774;SDS011;11554;51.106;3.684;2022-07-29T13:20:05;5.20;;;1.80;;
22774;SDS011;11554;51.106;3.684;2022-07-29T13:25:01;4.20;;;1.80;;
22774;SDS011;11554;51.106;3.684;2022-07-29T13:30:01;4.20;;;1.80;;
22774;SDS011;11554;51.106;3.684;2022-07-29T13:35:02;5.10;;;1.80;;
22774;SDS011;11554;51.106;3.684;2022-07-29T13:40:00;5.10;;;1.80;;
22774;SDS011;11554;51.106;3.684;2022-07-29T13:45:00;4.80;;;1.60;;
22774;SDS011;11554;51.106;3.684;2022-07-29T13:50:00;4.80;;;1.60;;
22774;SDS011;11554;51.106;3.684;2022-07-29T13:55:00;4.40;;;1.50;;
22774;SDS011;11554;51.106;3.684;2022-07-29T14:00:00;4.40;;;1.50;;
22774;SDS011;11554;51.106;3.684;2022-07-29T14:05:00;5.30;;;1.50;;
22774;SDS011;11554;51.106;3.684;2022-07-29T14:10:00;5.30;;;1.50;;
22774;SDS011;11554;51.106;3.684;2022-07-29T14:15:00;3.70;;;1.40;;
22774;SDS011;11554;51.106;3.684;2022-07-29T14:20:00;3.70;;;1.40;;
22774;SDS011;11554;51.106;3.684;2022-07-29T14:25:00;6.60;;;1.70;;
22774;SDS011;11554;51.106;3.684;2022-07-29T14:30:00;6.60;;;1.70;;
22774;SDS011;11554;51.106;3.684;2022-07-29T14:35:00;5.20;;;1.30;;
22774;SDS011;11554;51.106;3.684;2022-07-29T14:40:00;5.20;;;1.30;;
22774;SDS011;11554;51.106;3.684;2022-07-29T14:45:00;6.00;;;1.80;;
22774;SDS011;11554;51.106;3.684;2022-07-29T14:50:00;6.00;;;1.80;;
22774;SDS011;11554;51.106;3.684;2022-07-29T14:55:00;4.50;;;1.70;;
22774;SDS011;11554;51.106;3.684;2022-07-29T15:00:00;4.50;;;1.70;;
22774;SDS011;11554;51.106;3.684;2022-07-29T15:05:00;4.50;;;1.40;;
22774;SDS011;11554;51.106;3.684;2022-07-29T15:10:01;4.50;;;1.40;;
22774;SDS011;11554;51.106;3.684;2022-07-29T15:15:01;4.40;;;1.30;;
22774;SDS011;11554;51.106;3.684;2022-07-29T15:20:00;4.40;;;1.30;;
22774;SDS011;11554;51.106;3.684;2022-07-29T15:25:00;4.50;;;1.70;;
22774;SDS011;11554;51.106;3.684;2022-07-29T15:30:00;4.50;;;1.70;;
22774;SDS011;11554;51.106;3.684;2022-07-29T15:35:00;6.80;;;1.60;;
22774;SDS011;11554;51.106;3.684;2022-07-29T15:40:00;6.80;;;1.60;;
22774;SDS011;11554;51.106;3.684;2022-07-29T15:45:00;5.80;;;1.50;;
22774;SDS011;11554;51.106;3.684;2022-07-29T15:50:00;5.80;;;1.50;;
22774;SDS011;11554;51.106;3.684;2022-07-29T15:55:00;5.80;;;1.50;;
22774;SDS011;11554;51.106;3.684;2022-07-29T16:00:00;5.80;;;1.50;;
22774;SDS011;11554;51.106;3.684;2022-07-29T16:05:00;5.10;;;1.30;;
22774;SDS011;11554;51.106;3.684;2022-07-29T16:10:00;5.10;;;1.30;;
22774;SDS011;11554;51.106;3.684;2022-07-29T16:15:00;5.30;;;1.40;;
22774;SDS011;11554;51.106;3.684;2022-07-29T16:20:00;5.30;;;1.40;;
22774;SDS011;11554;51.106;3.684;2022-07-29T16:25:00;5.30;;;1.70;;
22774;SDS011;11554;51.106;3.684;2022-07-29T16:30:00;5.30;;;1.70;;
22774;SDS011;11554;51.106;3.684;2022-07-29T16:35:00;5.30;;;1.60;;
22774;SDS011;11554;51.106;3.684;2022-07-29T16:40:00;5.30;;;1.60;;
22774;SDS011;11554;51.106;3.684;2022-07-29T16:45:01;5.00;;;1.40;;
22774;SDS011;11554;51.106;3.684;2022-07-29T16:50:00;5.00;;;1.40;;
22774;SDS011;11554;51.106;3.684;2022-07-29T16:55:00;7.00;;;1.60;;
22774;SDS011;11554;51.106;3.684;2022-07-29T17:00:00;7.00;;;1.60;;
22774;SDS011;11554;51.106;3.684;2022-07-29T17:05:00;4.50;;;1.50;;
22774;SDS011;11554;51.106;3.684;2022-07-29T17:10:00;4.50;;;1.50;;
22774;SDS011;11554;51.106;3.684;2022-07-29T17:15:00;6.60;;;1.60;;
22774;SDS011;11554;51.106;3.684;2022-07-29T17:20:00;6.60;;;1.60;;
22774;SDS011;11554;51.106;3.684;2022-07-29T17:25:00;6.00;;;1.50;;
22774;SDS011;11554;51.106;3.684;2022-07-29T17:30:00;6.00;;;1.50;;
22774;SDS011;11554;51.106;3.684;2022-07-29T17:35:00;3.40;;;1.30;;
22774;SDS011;11554;51.106;3.684;2022-07-29T17:40:00;3.40;;;1.30;;
22774;SDS011;11554;51.106;3.684;2022-07-29T17:45:00;6.50;;;1.90;;
22774;SDS011;11554;51.106;3.684;2022-07-29T17:50:00;6.50;;;1.90;;
22774;SDS011;11554;51.106;3.684;2022-07-29T17:55:00;6.00;;;1.50;;
22774;SDS011;11554;51.106;3.684;2022-07-29T18:00:00;6.00;;;1.50;;
22774;SDS011;11554;51.106;3.684;2022-07-29T18:05:00;5.20;;;1.60;;
22774;SDS011;11554;51.106;3.684;2022-07-29T18:10:00;5.20;;;1.60;;
22774;SDS011;11554;51.106;3.684;2022-07-29T18:15:00;5.00;;;1.40;;
22774;SDS011;11554;51.106;3.684;2022-07-29T18:20:00;5.00;;;1.40;;
22774;SDS011;11554;51.106;3.684;2022-07-29T18:25:00;3.90;;;1.20;;
22774;SDS011;11554;51.106;3.684;2022-07-29T18:30:01;3.90;;;1.20;;
22774;SDS011;11554;51.106;3.684;2022-07-29T18:35:00;3.90;;;1.20;;
22774;SDS011;11554;51.106;3.684;2022-07-29T18:40:00;3.90;;;1.20;;
22774;SDS011;11554;51.106;3.684;2022-07-29T18:45:00;5.50;;;1.50;;
22774;SDS011;11554;51.106;3.684;2022-07-29T18:50:01;5.50;;;1.50;;
22774;SDS011;11554;51.106;3.684;2022-07-29T18:55:00;5.70;;;1.50;;
22774;SDS011;11554;51.106;3.684;2022-07-29T19:00:00;5.70;;;1.50;;
22774;SDS011;11554;51.106;3.684;2022-07-29T19:05:00;6.50;;;1.70;;
22774;SDS011;11554;51.106;3.684;2022-07-29T19:10:01;6.50;;;1.70;;
22774;SDS011;11554;51.106;3.684;2022-07-29T19:15:00;8.00;;;1.90;;
22774;SDS011;11554;51.106;3.684;2022-07-29T19:20:00;8.00;;;1.90;;
22774;SDS011;11554;51.106;3.684;2022-07-29T19:25:00;8.80;;;2.20;;
22774;SDS011;11554;51.106;3.684;2022-07-29T19:30:00;8.80;;;2.20;;
22774;SDS011;11554;51.106;3.684;2022-07-29T19:35:00;7.20;;;2.80;;
22774;SDS011;11554;51.106;3.684;2022-07-29T19:40:00;7.20;;;2.80;;
22774;SDS011;11554;51.106;3.684;2022-07-29T19:45:00;10.00;;;2.20;;
22774;SDS011;11554;51.106;3.684;2022-07-29T19:50:00;10.00;;;2.20;;
22774;SDS011;11554;51.106;3.684;2022-07-29T19:55:00;6.30;;;1.90;;
22774;SDS011;11554;51.106;3.684;2022-07-29T20:00:00;6.30;;;1.90;;
22774;SDS011;11554;51.106;3.684;2022-07-29T20:05:00;8.60;;;2.10;;
22774;SDS011;11554;51.106;3.684;2022-07-29T20:10:00;8.60;;;2.10;;
22774;SDS011;11554;51.106;3.684;2022-07-29T20:15:00;8.20;;;2.20;;
22774;SDS011;11554;51.106;3.684;2022-07-29T20:20:00;8.20;;;2.20;;
22774;SDS011;11554;51.106;3.684;2022-07-29T20:25:00;6.70;;;2.00;;
22774;SDS011;11554;51.106;3.684;2022-07-29T20:30:00;6.70;;;2.00;;
22774;SDS011;11554;51.106;3.684;2022-07-29T20:35:00;8.80;;;2.40;;
22774;SDS011;11554;51.106;3.684;2022-07-29T20:40:00;8.80;;;2.40;;
22774;SDS011;11554;51.106;3.684;2022-07-29T20:45:00;7.60;;;2.10;;
22774;SDS011;11554;51.106;3.684;2022-07-29T20:50:00;7.60;;;2.10;;
22774;SDS011;11554;51.106;3.684;2022-07-29T20:55:00;8.00;;;2.40;;
22774;SDS011;11554;51.106;3.684;2022-07-29T21:00:00;8.00;;;2.40;;
22774;SDS011;11554;51.106;3.684;2022-07-29T21:05:01;8.60;;;2.80;;
22774;SDS011;11554;51.106;3.684;2022-07-29T21:10:00;8.60;;;2.80;;
22774;SDS011;11554;51.106;3.684;2022-07-29T21:15:00;5.20;;;2.20;;
22774;SDS011;11554;51.106;3.684;2022-07-29T21:20:00;5.20;;;2.20;;
22774;SDS011;11554;51.106;3.684;2022-07-29T21:25:00;7.30;;;2.70;;
22774;SDS011;11554;51.106;3.684;2022-07-29T21:30:00;7.30;;;2.70;;
22774;SDS011;11554;51.106;3.684;2022-07-29T21:35:00;7.60;;;2.80;;
22774;SDS011;11554;51.106;3.684;2022-07-29T21:40:00;7.60;;;2.80;;
22774;SDS011;11554;51.106;3.684;2022-07-29T21:45:00;8.20;;;3.40;;
22774;SDS011;11554;51.106;3.684;2022-07-29T21:50:00;8.20;;;3.40;;
22774;SDS011;11554;51.106;3.684;2022-07-29T21:55:00;6.50;;;2.70;;
22774;SDS011;11554;51.106;3.684;2022-07-29T22:00:00;6.50;;;2.70;;
22774;SDS011;11554;51.106;3.684;2022-07-29T22:05:00;10.60;;;3.40;;
22774;SDS011;11554;51.106;3.684;2022-07-29T22:10:00;10.60;;;3.40;;
22774;SDS011;11554;51.106;3.684;2022-07-29T22:15:00;9.90;;;3.90;;
22774;SDS011;11554;51.106;3.684;2022-07-29T22:20:00;9.90;;;3.90;;
22774;SDS011;11554;51.106;3.684;2022-07-29T22:25:00;6.70;;;3.30;;
22774;SDS011;11554;51.106;3.684;2022-07-29T22:30:00;6.70;;;3.30;;
22774;SDS011;11554;51.106;3.684;2022-07-29T22:35:00;9.70;;;3.80;;
22774;SDS011;11554;51.106;3.684;2022-07-29T22:40:00;9.70;;;3.80;;
22774;SDS011;11554;51.106;3.684;2022-07-29T22:45:00;13.20;;;4.30;;
22774;SDS011;11554;51.106;3.684;2022-07-29T22:50:00;13.20;;;4.30;;
22774;SDS011;11554;51.106;3.684;2022-07-29T22:55:00;6.80;;;3.40;;
22774;SDS011;11554;51.106;3.684;2022-07-29T23:00:00;6.80;;;3.40;;
22774;SDS011;11554;51.106;3.684;2022-07-29T23:05:00;5.90;;;3.50;;
22774;SDS011;11554;51.106;3.684;2022-07-29T23:10:00;5.90;;;3.50;;
22774;SDS011;11554;51.106;3.684;2022-07-29T23:15:00;6.90;;;3.20;;
22774;SDS011;11554;51.106;3.684;2022-07-29T23:20:00;6.90;;;3.20;;
22774;SDS011;11554;51.106;3.684;2022-07-29T23:25:00;5.50;;;3.70;;
22774;SDS011;11554;51.106;3.684;2022-07-29T23:30:00;5.50;;;3.70;;
22774;SDS011;11554;51.106;3.684;2022-07-29T23:35:00;7.90;;;3.70;;
22774;SDS011;11554;51.106;3.684;2022-07-29T23:40:00;7.90;;;3.70;;
22774;SDS011;11554;51.106;3.684;2022-07-29T23:45:00;6.90;;;4.10;;
22774;SDS011;11554;51.106;3.684;2022-07-29T23:50:00;6.90;;;4.10;;
22774;SDS011;11554;51.106;3.684;2022-07-29T23:55:00;7.40;;;4.00;;
